sensor_id;sensor_type;location;lat;lon;timestamp;P1;durP1;ratioP1;P2;durP2;ratioP2
72209;SDS011;60113;48.762;12.302;2022-12-07T00:01:09;14.25;;;10.80;;
72209;SDS011;60113;48.762;12.302;2022-12-07T00:03:37;14.20;;;10.45;;
72209;SDS011;60113;48.762;12.302;2022-12-07T00:06:04;12.27;;;9.82;;
72209;SDS011;60113;48.762;12.302;2022-12-07T00:08:31;15.63;;;10.43;;
72209;SDS011;60113;48.762;12.302;2022-12-07T00:11:00;15.68;;;11.10;;
72209;SDS011;60113;48.762;12.302;2022-12-07T00:13:30;14.57;;;10.27;;
72209;SDS011;60113;48.762;12.302;2022-12-07T00:15:59;13.40;;;9.85;;
72209;SDS011;60113;48.762;12.302;2022-12-07T00:18:30;14.15;;;10.73;;
72209;SDS011;60113;48.762;12.302;2022-12-07T00:21:38;13.18;;;10.40;;
72209;SDS011;60113;48.762;12.302;2022-12-07T00:23:46;11.93;;;9.90;;
72209;SDS011;60113;48.762;12.302;2022-12-07T00:29:06;11.82;;;9.25;;
72209;SDS011;60113;48.762;12.302;2022-12-07T00:31:35;13.57;;;9.38;;
72209;SDS011;60113;48.762;12.302;2022-12-07T00:34:04;13.50;;;9.48;;
72209;SDS011;60113;48.762;12.302;2022-12-07T00:36:30;12.02;;;10.07;;
72209;SDS011;60113;48.762;12.302;2022-12-07T00:38:57;11.27;;;9.57;;
72209;SDS011;60113;48.762;12.302;2022-12-07T00:41:24;12.70;;;9.68;;
72209;SDS011;60113;48.762;12.302;2022-12-07T00:43:51;12.68;;;10.10;;
72209;SDS011;60113;48.762;12.302;2022-12-07T00:46:18;14.07;;;9.98;;
72209;SDS011;60113;48.762;12.302;2022-12-07T00:48:44;12.45;;;10.02;;
72209;SDS011;60113;48.762;12.302;2022-12-07T00:51:11;11.85;;;9.55;;
72209;SDS011;60113;48.762;12.302;2022-12-07T00:53:37;12.60;;;9.98;;
72209;SDS011;60113;48.762;12.302;2022-12-07T00:56:04;12.55;;;9.80;;
72209;SDS011;60113;48.762;12.302;2022-12-07T00:58:34;12.93;;;9.23;;
72209;SDS011;60113;48.762;12.302;2022-12-07T01:01:01;11.63;;;9.80;;
72209;SDS011;60113;48.762;12.302;2022-12-07T01:03:28;11.55;;;9.40;;
72209;SDS011;60113;48.762;12.302;2022-12-07T01:05:54;15.75;;;9.93;;
72209;SDS011;60113;48.762;12.302;2022-12-07T01:08:21;12.48;;;10.00;;
72209;SDS011;60113;48.762;12.302;2022-12-07T01:10:48;12.32;;;10.13;;
72209;SDS011;60113;48.762;12.302;2022-12-07T01:13:14;10.68;;;9.13;;
72209;SDS011;60113;48.762;12.302;2022-12-07T01:15:41;14.07;;;9.57;;
72209;SDS011;60113;48.762;12.302;2022-12-07T01:18:08;12.30;;;9.70;;
72209;SDS011;60113;48.762;12.302;2022-12-07T01:20:34;11.13;;;9.27;;
72209;SDS011;60113;48.762;12.302;2022-12-07T01:23:00;11.65;;;9.73;;
72209;SDS011;60113;48.762;12.302;2022-12-07T01:25:25;10.88;;;8.98;;
72209;SDS011;60113;48.762;12.302;2022-12-07T01:27:51;13.30;;;9.88;;
72209;SDS011;60113;48.762;12.302;2022-12-07T01:30:16;13.48;;;9.90;;
72209;SDS011;60113;48.762;12.302;2022-12-07T01:32:42;13.32;;;9.90;;
72209;SDS011;60113;48.762;12.302;2022-12-07T01:35:07;12.68;;;9.85;;
72209;SDS011;60113;48.762;12.302;2022-12-07T01:37:34;11.27;;;9.65;;
72209;SDS011;60113;48.762;12.302;2022-12-07T01:40:01;12.30;;;10.13;;
72209;SDS011;60113;48.762;12.302;2022-12-07T01:42:28;12.40;;;10.25;;
72209;SDS011;60113;48.762;12.302;2022-12-07T01:47:47;13.10;;;10.25;;
72209;SDS011;60113;48.762;12.302;2022-12-07T01:50:17;12.57;;;10.57;;
72209;SDS011;60113;48.762;12.302;2022-12-07T01:52:44;12.45;;;10.45;;
72209;SDS011;60113;48.762;12.302;2022-12-07T01:55:14;13.23;;;10.68;;
72209;SDS011;60113;48.762;12.302;2022-12-07T01:57:42;12.57;;;10.48;;
72209;SDS011;60113;48.762;12.302;2022-12-07T02:00:11;13.10;;;10.45;;
72209;SDS011;60113;48.762;12.302;2022-12-07T02:02:38;13.63;;;11.13;;
72209;SDS011;60113;48.762;12.302;2022-12-07T02:05:28;14.35;;;11.25;;
72209;SDS011;60113;48.762;12.302;2022-12-07T02:07:54;13.02;;;10.70;;
72209;SDS011;60113;48.762;12.302;2022-12-07T02:10:26;12.98;;;11.38;;
72209;SDS011;60113;48.762;12.302;2022-12-07T02:18:23;14.77;;;11.98;;
72209;SDS011;60113;48.762;12.302;2022-12-07T02:29:22;16.40;;;12.40;;
72209;SDS011;60113;48.762;12.302;2022-12-07T02:34:44;15.15;;;12.48;;
72209;SDS011;60113;48.762;12.302;2022-12-07T02:37:36;15.77;;;12.65;;
72209;SDS011;60113;48.762;12.302;2022-12-07T02:40:01;14.25;;;11.85;;
72209;SDS011;60113;48.762;12.302;2022-12-07T02:42:46;14.18;;;11.80;;
72209;SDS011;60113;48.762;12.302;2022-12-07T02:45:17;15.50;;;12.60;;
72209;SDS011;60113;48.762;12.302;2022-12-07T02:47:47;14.07;;;11.23;;
72209;SDS011;60113;48.762;12.302;2022-12-07T02:50:17;13.77;;;11.30;;
72209;SDS011;60113;48.762;12.302;2022-12-07T02:52:44;13.50;;;11.20;;
72209;SDS011;60113;48.762;12.302;2022-12-07T02:55:10;14.82;;;11.73;;
72209;SDS011;60113;48.762;12.302;2022-12-07T02:57:54;13.68;;;11.48;;
72209;SDS011;60113;48.762;12.302;2022-12-07T03:00:21;14.82;;;11.95;;
72209;SDS011;60113;48.762;12.302;2022-12-07T03:02:55;14.60;;;12.25;;
72209;SDS011;60113;48.762;12.302;2022-12-07T03:10:56;14.93;;;11.93;;
72209;SDS011;60113;48.762;12.302;2022-12-07T03:18:34;15.05;;;12.23;;
72209;SDS011;60113;48.762;12.302;2022-12-07T03:21:06;14.80;;;12.55;;
72209;SDS011;60113;48.762;12.302;2022-12-07T03:23:39;14.75;;;12.85;;
72209;SDS011;60113;48.762;12.302;2022-12-07T03:26:08;14.73;;;12.68;;
72209;SDS011;60113;48.762;12.302;2022-12-07T03:28:37;18.38;;;13.27;;
72209;SDS011;60113;48.762;12.302;2022-12-07T03:31:20;15.57;;;13.30;;
72209;SDS011;60113;48.762;12.302;2022-12-07T03:39:20;15.25;;;13.48;;
72209;SDS011;60113;48.762;12.302;2022-12-07T03:41:59;17.55;;;13.90;;
72209;SDS011;60113;48.762;12.302;2022-12-07T03:44:27;17.73;;;14.50;;
72209;SDS011;60113;48.762;12.302;2022-12-07T03:47:37;18.00;;;14.43;;
72209;SDS011;60113;48.762;12.302;2022-12-07T03:49:52;18.92;;;15.32;;
72209;SDS011;60113;48.762;12.302;2022-12-07T03:52:30;20.58;;;15.73;;
72209;SDS011;60113;48.762;12.302;2022-12-07T03:55:11;17.88;;;14.85;;
72209;SDS011;60113;48.762;12.302;2022-12-07T03:57:42;18.73;;;15.27;;
72209;SDS011;60113;48.762;12.302;2022-12-07T04:00:11;23.83;;;15.82;;
72209;SDS011;60113;48.762;12.302;2022-12-07T04:02:38;22.10;;;15.93;;
72209;SDS011;60113;48.762;12.302;2022-12-07T04:05:04;21.20;;;16.25;;
72209;SDS011;60113;48.762;12.302;2022-12-07T04:07:31;21.38;;;16.75;;
72209;SDS011;60113;48.762;12.302;2022-12-07T04:09:56;21.10;;;16.50;;
72209;SDS011;60113;48.762;12.302;2022-12-07T04:12:23;20.85;;;15.93;;
72209;SDS011;60113;48.762;12.302;2022-12-07T04:14:56;24.08;;;20.55;;
72209;SDS011;60113;48.762;12.302;2022-12-07T04:17:21;25.40;;;17.08;;
72209;SDS011;60113;48.762;12.302;2022-12-07T04:19:47;22.65;;;17.00;;
72209;SDS011;60113;48.762;12.302;2022-12-07T04:22:13;23.40;;;18.02;;
72209;SDS011;60113;48.762;12.302;2022-12-07T04:24:38;33.78;;;28.85;;
72209;SDS011;60113;48.762;12.302;2022-12-07T04:27:04;24.85;;;20.13;;
72209;SDS011;60113;48.762;12.302;2022-12-07T04:29:29;34.55;;;26.33;;
72209;SDS011;60113;48.762;12.302;2022-12-07T04:31:55;28.90;;;22.90;;
72209;SDS011;60113;48.762;12.302;2022-12-07T04:34:21;31.67;;;19.92;;
72209;SDS011;60113;48.762;12.302;2022-12-07T04:36:46;22.77;;;18.40;;
72209;SDS011;60113;48.762;12.302;2022-12-07T04:39:27;28.02;;;18.67;;
72209;SDS011;60113;48.762;12.302;2022-12-07T04:41:54;24.58;;;18.98;;
72209;SDS011;60113;48.762;12.302;2022-12-07T04:44:20;26.63;;;19.65;;
72209;SDS011;60113;48.762;12.302;2022-12-07T04:46:47;23.25;;;18.50;;
72209;SDS011;60113;48.762;12.302;2022-12-07T04:49:12;25.98;;;19.17;;
72209;SDS011;60113;48.762;12.302;2022-12-07T04:51:39;24.08;;;19.17;;
72209;SDS011;60113;48.762;12.302;2022-12-07T04:54:05;26.05;;;19.33;;
72209;SDS011;60113;48.762;12.302;2022-12-07T04:56:31;26.17;;;18.60;;
72209;SDS011;60113;48.762;12.302;2022-12-07T04:58:57;24.58;;;19.17;;
72209;SDS011;60113;48.762;12.302;2022-12-07T05:01:24;21.98;;;18.38;;
72209;SDS011;60113;48.762;12.302;2022-12-07T05:03:50;24.23;;;18.08;;
72209;SDS011;60113;48.762;12.302;2022-12-07T05:06:15;24.92;;;18.92;;
72209;SDS011;60113;48.762;12.302;2022-12-07T05:08:41;23.40;;;18.20;;
72209;SDS011;60113;48.762;12.302;2022-12-07T05:11:09;24.63;;;18.65;;
72209;SDS011;60113;48.762;12.302;2022-12-07T05:13:56;26.73;;;19.55;;
72209;SDS011;60113;48.762;12.302;2022-12-07T05:16:21;27.10;;;19.73;;
72209;SDS011;60113;48.762;12.302;2022-12-07T05:18:47;25.98;;;19.38;;
72209;SDS011;60113;48.762;12.302;2022-12-07T05:21:12;28.10;;;20.38;;
72209;SDS011;60113;48.762;12.302;2022-12-07T05:23:38;25.50;;;20.15;;
72209;SDS011;60113;48.762;12.302;2022-12-07T05:26:04;34.10;;;20.23;;
72209;SDS011;60113;48.762;12.302;2022-12-07T05:28:30;31.75;;;23.00;;
72209;SDS011;60113;48.762;12.302;2022-12-07T05:30:55;30.55;;;22.27;;
72209;SDS011;60113;48.762;12.302;2022-12-07T05:33:21;31.55;;;23.20;;
72209;SDS011;60113;48.762;12.302;2022-12-07T05:35:46;32.28;;;22.58;;
72209;SDS011;60113;48.762;12.302;2022-12-07T05:38:12;34.60;;;24.55;;
72209;SDS011;60113;48.762;12.302;2022-12-07T05:40:46;38.63;;;24.75;;
72209;SDS011;60113;48.762;12.302;2022-12-07T05:43:15;39.60;;;26.30;;
72209;SDS011;60113;48.762;12.302;2022-12-07T05:45:47;44.63;;;29.60;;
72209;SDS011;60113;48.762;12.302;2022-12-07T05:48:16;46.10;;;29.67;;
72209;SDS011;60113;48.762;12.302;2022-12-07T05:51:13;41.40;;;29.45;;
72209;SDS011;60113;48.762;12.302;2022-12-07T05:53:43;47.42;;;29.05;;
72209;SDS011;60113;48.762;12.302;2022-12-07T05:56:23;44.75;;;29.80;;
72209;SDS011;60113;48.762;12.302;2022-12-07T05:59:00;35.35;;;25.20;;
72209;SDS011;60113;48.762;12.302;2022-12-07T06:01:54;37.20;;;26.95;;
72209;SDS011;60113;48.762;12.302;2022-12-07T06:04:34;35.08;;;25.42;;
72209;SDS011;60113;48.762;12.302;2022-12-07T06:07:10;37.40;;;25.23;;
72209;SDS011;60113;48.762;12.302;2022-12-07T06:09:48;35.33;;;26.42;;
72209;SDS011;60113;48.762;12.302;2022-12-07T06:12:27;42.78;;;31.10;;
72209;SDS011;60113;48.762;12.302;2022-12-07T06:15:29;43.38;;;32.80;;
72209;SDS011;60113;48.762;12.302;2022-12-07T06:18:28;52.28;;;39.13;;
72209;SDS011;60113;48.762;12.302;2022-12-07T06:21:00;49.80;;;32.35;;
72209;SDS011;60113;48.762;12.302;2022-12-07T06:23:44;45.42;;;32.08;;
72209;SDS011;60113;48.762;12.302;2022-12-07T06:26:20;44.35;;;28.13;;
72209;SDS011;60113;48.762;12.302;2022-12-07T06:28:51;41.92;;;29.40;;
72209;SDS011;60113;48.762;12.302;2022-12-07T06:31:32;53.47;;;33.25;;
72209;SDS011;60113;48.762;12.302;2022-12-07T06:34:19;41.38;;;29.23;;
72209;SDS011;60113;48.762;12.302;2022-12-07T06:37:11;44.17;;;28.52;;
72209;SDS011;60113;48.762;12.302;2022-12-07T06:40:01;57.25;;;33.65;;
72209;SDS011;60113;48.762;12.302;2022-12-07T06:42:38;58.05;;;36.45;;
72209;SDS011;60113;48.762;12.302;2022-12-07T06:45:18;57.53;;;36.17;;
72209;SDS011;60113;48.762;12.302;2022-12-07T06:47:54;64.07;;;33.92;;
72209;SDS011;60113;48.762;12.302;2022-12-07T06:50:33;62.97;;;35.30;;
72209;SDS011;60113;48.762;12.302;2022-12-07T06:53:06;67.95;;;37.67;;
72209;SDS011;60113;48.762;12.302;2022-12-07T06:55:43;72.78;;;38.63;;
72209;SDS011;60113;48.762;12.302;2022-12-07T06:58:20;74.82;;;37.80;;
72209;SDS011;60113;48.762;12.302;2022-12-07T07:00:49;82.32;;;42.05;;
72209;SDS011;60113;48.762;12.302;2022-12-07T07:03:15;91.13;;;42.67;;
72209;SDS011;60113;48.762;12.302;2022-12-07T07:05:41;88.50;;;41.35;;
72209;SDS011;60113;48.762;12.302;2022-12-07T07:08:08;75.57;;;39.88;;
72209;SDS011;60113;48.762;12.302;2022-12-07T07:10:34;84.05;;;40.00;;
72209;SDS011;60113;48.762;12.302;2022-12-07T07:13:00;100.32;;;48.00;;
72209;SDS011;60113;48.762;12.302;2022-12-07T07:15:26;108.40;;;46.22;;
72209;SDS011;60113;48.762;12.302;2022-12-07T07:17:51;104.57;;;47.55;;
72209;SDS011;60113;48.762;12.302;2022-12-07T07:20:17;144.82;;;70.50;;
72209;SDS011;60113;48.762;12.302;2022-12-07T07:22:42;118.30;;;54.05;;
72209;SDS011;60113;48.762;12.302;2022-12-07T07:25:08;121.40;;;50.85;;
72209;SDS011;60113;48.762;12.302;2022-12-07T07:27:33;127.15;;;52.40;;
72209;SDS011;60113;48.762;12.302;2022-12-07T07:29:59;126.57;;;53.97;;
72209;SDS011;60113;48.762;12.302;2022-12-07T07:32:24;114.60;;;52.25;;
72209;SDS011;60113;48.762;12.302;2022-12-07T07:34:50;111.97;;;50.90;;
72209;SDS011;60113;48.762;12.302;2022-12-07T07:37:15;114.13;;;50.30;;
72209;SDS011;60113;48.762;12.302;2022-12-07T07:39:41;119.90;;;51.60;;
72209;SDS011;60113;48.762;12.302;2022-12-07T07:42:06;114.75;;;49.75;;
72209;SDS011;60113;48.762;12.302;2022-12-07T07:44:32;103.80;;;46.72;;
72209;SDS011;60113;48.762;12.302;2022-12-07T07:46:59;101.45;;;47.28;;
72209;SDS011;60113;48.762;12.302;2022-12-07T07:49:25;103.05;;;51.58;;
72209;SDS011;60113;48.762;12.302;2022-12-07T07:51:51;83.93;;;44.13;;
72209;SDS011;60113;48.762;12.302;2022-12-07T07:54:16;67.57;;;38.65;;
72209;SDS011;60113;48.762;12.302;2022-12-07T07:56:42;64.45;;;35.28;;
72209;SDS011;60113;48.762;12.302;2022-12-07T07:59:07;54.63;;;32.53;;
72209;SDS011;60113;48.762;12.302;2022-12-07T08:01:33;49.38;;;31.45;;
72209;SDS011;60113;48.762;12.302;2022-12-07T08:03:59;49.88;;;30.40;;
72209;SDS011;60113;48.762;12.302;2022-12-07T08:06:24;43.58;;;28.25;;
72209;SDS011;60113;48.762;12.302;2022-12-07T08:08:50;44.53;;;27.95;;
72209;SDS011;60113;48.762;12.302;2022-12-07T08:11:15;42.78;;;28.05;;
72209;SDS011;60113;48.762;12.302;2022-12-07T08:13:41;43.53;;;27.60;;
72209;SDS011;60113;48.762;12.302;2022-12-07T08:16:07;42.05;;;27.08;;
72209;SDS011;60113;48.762;12.302;2022-12-07T08:18:35;42.50;;;26.92;;
72209;SDS011;60113;48.762;12.302;2022-12-07T08:21:01;45.90;;;27.83;;
72209;SDS011;60113;48.762;12.302;2022-12-07T08:23:27;38.45;;;25.55;;
72209;SDS011;60113;48.762;12.302;2022-12-07T08:25:53;39.15;;;25.90;;
72209;SDS011;60113;48.762;12.302;2022-12-07T08:28:19;42.13;;;26.35;;
72209;SDS011;60113;48.762;12.302;2022-12-07T08:30:44;39.85;;;26.70;;
72209;SDS011;60113;48.762;12.302;2022-12-07T08:33:11;46.55;;;28.35;;
72209;SDS011;60113;48.762;12.302;2022-12-07T08:35:36;39.97;;;26.52;;
72209;SDS011;60113;48.762;12.302;2022-12-07T08:38:02;52.15;;;29.38;;
72209;SDS011;60113;48.762;12.302;2022-12-07T08:40:28;42.50;;;28.25;;
72209;SDS011;60113;48.762;12.302;2022-12-07T08:42:54;41.13;;;28.80;;
72209;SDS011;60113;48.762;12.302;2022-12-07T08:45:20;34.72;;;24.10;;
72209;SDS011;60113;48.762;12.302;2022-12-07T08:47:57;29.35;;;21.05;;
72209;SDS011;60113;48.762;12.302;2022-12-07T08:50:27;36.58;;;24.23;;
72209;SDS011;60113;48.762;12.302;2022-12-07T08:52:54;28.75;;;21.73;;
72209;SDS011;60113;48.762;12.302;2022-12-07T08:55:22;29.20;;;22.25;;
72209;SDS011;60113;48.762;12.302;2022-12-07T08:57:48;26.00;;;19.13;;
72209;SDS011;60113;48.762;12.302;2022-12-07T09:00:14;26.45;;;18.73;;
72209;SDS011;60113;48.762;12.302;2022-12-07T09:02:42;26.45;;;19.35;;
72209;SDS011;60113;48.762;12.302;2022-12-07T09:05:09;24.17;;;18.92;;
72209;SDS011;60113;48.762;12.302;2022-12-07T09:07:34;24.67;;;18.92;;
72209;SDS011;60113;48.762;12.302;2022-12-07T09:10:02;27.85;;;20.52;;
72209;SDS011;60113;48.762;12.302;2022-12-07T09:12:28;23.48;;;17.40;;
72209;SDS011;60113;48.762;12.302;2022-12-07T09:14:54;25.60;;;18.92;;
72209;SDS011;60113;48.762;12.302;2022-12-07T09:17:19;25.83;;;17.98;;
72209;SDS011;60113;48.762;12.302;2022-12-07T09:19:44;26.02;;;18.25;;
72209;SDS011;60113;48.762;12.302;2022-12-07T09:22:10;27.08;;;18.35;;
72209;SDS011;60113;48.762;12.302;2022-12-07T09:24:35;25.63;;;18.77;;
72209;SDS011;60113;48.762;12.302;2022-12-07T09:27:01;21.60;;;16.88;;
72209;SDS011;60113;48.762;12.302;2022-12-07T09:29:26;26.20;;;16.50;;
72209;SDS011;60113;48.762;12.302;2022-12-07T09:31:52;24.42;;;18.05;;
72209;SDS011;60113;48.762;12.302;2022-12-07T09:34:18;24.92;;;18.52;;
72209;SDS011;60113;48.762;12.302;2022-12-07T09:36:43;23.25;;;16.25;;
72209;SDS011;60113;48.762;12.302;2022-12-07T09:39:09;22.15;;;16.77;;
72209;SDS011;60113;48.762;12.302;2022-12-07T09:41:41;20.83;;;15.20;;
72209;SDS011;60113;48.762;12.302;2022-12-07T09:44:13;24.13;;;15.50;;
72209;SDS011;60113;48.762;12.302;2022-12-07T09:46:45;19.38;;;14.18;;
72209;SDS011;60113;48.762;12.302;2022-12-07T09:49:18;18.80;;;13.63;;
72209;SDS011;60113;48.762;12.302;2022-12-07T09:51:46;18.45;;;13.95;;
72209;SDS011;60113;48.762;12.302;2022-12-07T09:54:12;19.80;;;14.40;;
72209;SDS011;60113;48.762;12.302;2022-12-07T09:56:39;18.92;;;13.45;;
72209;SDS011;60113;48.762;12.302;2022-12-07T09:59:05;20.17;;;14.15;;
72209;SDS011;60113;48.762;12.302;2022-12-07T10:01:31;18.35;;;13.68;;
72209;SDS011;60113;48.762;12.302;2022-12-07T10:04:08;17.42;;;13.07;;
72209;SDS011;60113;48.762;12.302;2022-12-07T10:06:37;16.98;;;12.82;;
72209;SDS011;60113;48.762;12.302;2022-12-07T10:09:10;20.25;;;15.48;;
72209;SDS011;60113;48.762;12.302;2022-12-07T10:14:33;25.67;;;16.85;;
72209;SDS011;60113;48.762;12.302;2022-12-07T10:17:00;29.10;;;20.45;;
72209;SDS011;60113;48.762;12.302;2022-12-07T10:19:29;21.13;;;15.25;;
72209;SDS011;60113;48.762;12.302;2022-12-07T10:22:13;17.35;;;12.93;;
72209;SDS011;60113;48.762;12.302;2022-12-07T10:24:42;15.68;;;12.48;;
72209;SDS011;60113;48.762;12.302;2022-12-07T10:27:18;15.60;;;12.20;;
72209;SDS011;60113;48.762;12.302;2022-12-07T10:29:50;17.88;;;12.32;;
72209;SDS011;60113;48.762;12.302;2022-12-07T10:34:42;14.23;;;10.55;;
72209;SDS011;60113;48.762;12.302;2022-12-07T10:42:49;23.23;;;16.42;;
72209;SDS011;60113;48.762;12.302;2022-12-07T10:45:29;23.55;;;14.30;;
72209;SDS011;60113;48.762;12.302;2022-12-07T10:48:38;21.05;;;15.30;;
72209;SDS011;60113;48.762;12.302;2022-12-07T10:50:56;15.80;;;11.82;;
72209;SDS011;60113;48.762;12.302;2022-12-07T10:56:25;14.43;;;9.30;;
72209;SDS011;60113;48.762;12.302;2022-12-07T11:02:09;97.47;;;36.80;;
72209;SDS011;60113;48.762;12.302;2022-12-07T11:07:40;12.55;;;7.65;;
72209;SDS011;60113;48.762;12.302;2022-12-07T11:15:42;12.05;;;8.30;;
72209;SDS011;60113;48.762;12.302;2022-12-07T11:19:16;12.73;;;9.68;;
72209;SDS011;60113;48.762;12.302;2022-12-07T11:21:27;11.35;;;8.07;;
72209;SDS011;60113;48.762;12.302;2022-12-07T11:24:10;10.77;;;8.07;;
72209;SDS011;60113;48.762;12.302;2022-12-07T11:37:51;13.30;;;9.45;;
72209;SDS011;60113;48.762;12.302;2022-12-07T11:40:35;12.90;;;9.32;;
72209;SDS011;60113;48.762;12.302;2022-12-07T11:45:43;14.15;;;9.75;;
72209;SDS011;60113;48.762;12.302;2022-12-07T11:48:17;16.65;;;10.15;;
72209;SDS011;60113;48.762;12.302;2022-12-07T11:50:48;16.55;;;10.82;;
72209;SDS011;60113;48.762;12.302;2022-12-07T11:53:40;15.93;;;10.88;;
72209;SDS011;60113;48.762;12.302;2022-12-07T11:56:23;20.98;;;11.18;;
72209;SDS011;60113;48.762;12.302;2022-12-07T11:59:00;14.88;;;9.75;;
72209;SDS011;60113;48.762;12.302;2022-12-07T12:06:34;16.67;;;12.45;;
72209;SDS011;60113;48.762;12.302;2022-12-07T12:09:03;16.90;;;11.32;;
72209;SDS011;60113;48.762;12.302;2022-12-07T12:14:38;14.80;;;10.75;;
72209;SDS011;60113;48.762;12.302;2022-12-07T12:22:26;20.83;;;9.75;;
72209;SDS011;60113;48.762;12.302;2022-12-07T12:24:59;16.40;;;9.65;;
72209;SDS011;60113;48.762;12.302;2022-12-07T12:27:31;14.68;;;9.63;;
72209;SDS011;60113;48.762;12.302;2022-12-07T12:29:59;13.38;;;9.80;;
72209;SDS011;60113;48.762;12.302;2022-12-07T12:35:26;14.77;;;10.05;;
72209;SDS011;60113;48.762;12.302;2022-12-07T12:37:52;19.50;;;9.73;;
72209;SDS011;60113;48.762;12.302;2022-12-07T12:42:53;15.57;;;9.30;;
72209;SDS011;60113;48.762;12.302;2022-12-07T12:45:22;15.73;;;10.38;;
72209;SDS011;60113;48.762;12.302;2022-12-07T12:50:37;19.08;;;10.20;;
72209;SDS011;60113;48.762;12.302;2022-12-07T12:53:11;14.55;;;9.52;;
72209;SDS011;60113;48.762;12.302;2022-12-07T12:58:35;12.18;;;8.70;;
72209;SDS011;60113;48.762;12.302;2022-12-07T13:01:46;14.18;;;9.55;;
72209;SDS011;60113;48.762;12.302;2022-12-07T13:04:01;14.88;;;10.30;;
72209;SDS011;60113;48.762;12.302;2022-12-07T13:06:34;14.27;;;9.95;;
72209;SDS011;60113;48.762;12.302;2022-12-07T13:09:03;13.82;;;9.35;;
72209;SDS011;60113;48.762;12.302;2022-12-07T13:17:08;13.50;;;9.95;;
72209;SDS011;60113;48.762;12.302;2022-12-07T13:19:54;15.15;;;10.65;;
72209;SDS011;60113;48.762;12.302;2022-12-07T13:25:08;14.40;;;10.25;;
72209;SDS011;60113;48.762;12.302;2022-12-07T13:27:36;18.48;;;11.13;;
72209;SDS011;60113;48.762;12.302;2022-12-07T13:30:14;14.40;;;10.70;;
72209;SDS011;60113;48.762;12.302;2022-12-07T13:32:42;17.75;;;11.32;;
72209;SDS011;60113;48.762;12.302;2022-12-07T13:37:57;25.25;;;12.88;;
72209;SDS011;60113;48.762;12.302;2022-12-07T13:40:23;17.33;;;11.65;;
72209;SDS011;60113;48.762;12.302;2022-12-07T13:42:56;52.55;;;16.65;;
72209;SDS011;60113;48.762;12.302;2022-12-07T13:45:31;21.15;;;13.45;;
72209;SDS011;60113;48.762;12.302;2022-12-07T13:48:32;23.38;;;12.55;;
72209;SDS011;60113;48.762;12.302;2022-12-07T13:51:21;16.10;;;11.10;;
72209;SDS011;60113;48.762;12.302;2022-12-07T13:53:51;16.30;;;11.43;;
72209;SDS011;60113;48.762;12.302;2022-12-07T13:56:20;17.95;;;12.32;;
72209;SDS011;60113;48.762;12.302;2022-12-07T13:58:47;17.25;;;11.32;;
72209;SDS011;60113;48.762;12.302;2022-12-07T14:01:13;19.52;;;12.93;;
72209;SDS011;60113;48.762;12.302;2022-12-07T14:03:39;17.17;;;11.40;;
72209;SDS011;60113;48.762;12.302;2022-12-07T14:08:46;18.17;;;12.65;;
72209;SDS011;60113;48.762;12.302;2022-12-07T14:11:16;17.13;;;11.07;;
72209;SDS011;60113;48.762;12.302;2022-12-07T14:18:45;23.05;;;11.90;;
72209;SDS011;60113;48.762;12.302;2022-12-07T14:21:15;19.08;;;11.63;;
72209;SDS011;60113;48.762;12.302;2022-12-07T14:23:43;17.63;;;12.18;;
72209;SDS011;60113;48.762;12.302;2022-12-07T14:26:11;15.82;;;11.30;;
72209;SDS011;60113;48.762;12.302;2022-12-07T14:28:44;21.63;;;12.55;;
72209;SDS011;60113;48.762;12.302;2022-12-07T14:31:13;18.48;;;12.38;;
72209;SDS011;60113;48.762;12.302;2022-12-07T14:33:39;21.98;;;12.05;;
72209;SDS011;60113;48.762;12.302;2022-12-07T14:36:06;21.65;;;13.05;;
72209;SDS011;60113;48.762;12.302;2022-12-07T14:38:33;20.63;;;12.73;;
72209;SDS011;60113;48.762;12.302;2022-12-07T14:40:59;18.00;;;11.60;;
72209;SDS011;60113;48.762;12.302;2022-12-07T14:43:45;20.90;;;12.40;;
72209;SDS011;60113;48.762;12.302;2022-12-07T14:46:11;18.60;;;12.80;;
72209;SDS011;60113;48.762;12.302;2022-12-07T14:48:37;18.08;;;11.52;;
72209;SDS011;60113;48.762;12.302;2022-12-07T14:51:02;18.35;;;12.15;;
72209;SDS011;60113;48.762;12.302;2022-12-07T14:53:30;24.17;;;13.15;;
72209;SDS011;60113;48.762;12.302;2022-12-07T14:56:00;17.60;;;12.85;;
72209;SDS011;60113;48.762;12.302;2022-12-07T14:58:25;18.35;;;11.75;;
72209;SDS011;60113;48.762;12.302;2022-12-07T15:00:51;23.75;;;15.13;;
72209;SDS011;60113;48.762;12.302;2022-12-07T15:03:18;20.77;;;12.35;;
72209;SDS011;60113;48.762;12.302;2022-12-07T15:05:44;17.73;;;12.13;;
72209;SDS011;60113;48.762;12.302;2022-12-07T15:08:12;20.98;;;12.68;;
72209;SDS011;60113;48.762;12.302;2022-12-07T15:10:39;17.90;;;11.77;;
72209;SDS011;60113;48.762;12.302;2022-12-07T15:15:53;22.77;;;14.57;;
72209;SDS011;60113;48.762;12.302;2022-12-07T15:18:19;20.98;;;12.02;;
72209;SDS011;60113;48.762;12.302;2022-12-07T15:20:46;23.35;;;13.55;;
72209;SDS011;60113;48.762;12.302;2022-12-07T15:23:12;20.88;;;13.35;;
72209;SDS011;60113;48.762;12.302;2022-12-07T15:25:41;21.00;;;13.48;;
72209;SDS011;60113;48.762;12.302;2022-12-07T15:28:07;23.17;;;13.65;;
72209;SDS011;60113;48.762;12.302;2022-12-07T15:30:32;20.95;;;14.48;;
72209;SDS011;60113;48.762;12.302;2022-12-07T15:32:58;22.13;;;13.75;;
72209;SDS011;60113;48.762;12.302;2022-12-07T15:35:23;20.15;;;13.05;;
72209;SDS011;60113;48.762;12.302;2022-12-07T15:37:49;20.02;;;12.40;;
72209;SDS011;60113;48.762;12.302;2022-12-07T15:40:14;21.58;;;12.27;;
72209;SDS011;60113;48.762;12.302;2022-12-07T15:42:40;21.15;;;13.15;;
72209;SDS011;60113;48.762;12.302;2022-12-07T15:45:06;21.35;;;13.25;;
72209;SDS011;60113;48.762;12.302;2022-12-07T15:47:36;20.23;;;12.55;;
72209;SDS011;60113;48.762;12.302;2022-12-07T15:50:06;19.42;;;12.82;;
72209;SDS011;60113;48.762;12.302;2022-12-07T15:52:34;16.73;;;11.80;;
72209;SDS011;60113;48.762;12.302;2022-12-07T15:55:00;19.58;;;12.32;;
72209;SDS011;60113;48.762;12.302;2022-12-07T15:57:28;18.10;;;12.90;;
72209;SDS011;60113;48.762;12.302;2022-12-07T15:59:57;19.63;;;12.55;;
72209;SDS011;60113;48.762;12.302;2022-12-07T16:02:23;20.83;;;13.18;;
72209;SDS011;60113;48.762;12.302;2022-12-07T16:04:50;19.35;;;11.88;;
72209;SDS011;60113;48.762;12.302;2022-12-07T16:07:16;19.67;;;12.50;;
72209;SDS011;60113;48.762;12.302;2022-12-07T16:09:45;25.75;;;13.60;;
72209;SDS011;60113;48.762;12.302;2022-12-07T16:12:11;21.02;;;12.95;;
72209;SDS011;60113;48.762;12.302;2022-12-07T16:14:37;25.33;;;14.10;;
72209;SDS011;60113;48.762;12.302;2022-12-07T16:17:04;18.95;;;12.82;;
72209;SDS011;60113;48.762;12.302;2022-12-07T16:19:30;27.52;;;13.93;;
72209;SDS011;60113;48.762;12.302;2022-12-07T16:21:56;24.95;;;15.98;;
72209;SDS011;60113;48.762;12.302;2022-12-07T16:24:22;29.88;;;17.88;;
72209;SDS011;60113;48.762;12.302;2022-12-07T16:26:47;27.33;;;14.68;;
72209;SDS011;60113;48.762;12.302;2022-12-07T16:29:13;22.52;;;14.70;;
72209;SDS011;60113;48.762;12.302;2022-12-07T16:31:39;27.77;;;15.95;;